sensor_id;sensor_type;location;lat;lon;timestamp;P1;durP1;ratioP1;P2;durP2;ratioP2
29414;SDS011;20303;48.302;11.914;2023-10-19T00:07:48;5.05;;;3.50;;
29414;SDS011;20303;48.302;11.914;2023-10-19T00:17:49;3.67;;;3.25;;
29414;SDS011;20303;48.302;11.914;2023-10-19T00:27:55;4.18;;;3.78;;
29414;SDS011;20303;48.302;11.914;2023-10-19T00:37:56;3.83;;;3.42;;
29414;SDS011;20303;48.302;11.914;2023-10-19T00:48:17;4.15;;;3.75;;
29414;SDS011;20303;48.302;11.914;2023-10-19T00:58:23;4.00;;;3.60;;
29414;SDS011;20303;48.302;11.914;2023-10-19T01:08:29;4.28;;;3.88;;
29414;SDS011;20303;48.302;11.914;2023-10-19T01:18:41;4.35;;;3.67;;
29414;SDS011;20303;48.302;11.914;2023-10-19T01:28:43;4.25;;;3.85;;
29414;SDS011;20303;48.302;11.914;2023-10-19T01:38:48;4.25;;;3.85;;
29414;SDS011;20303;48.302;11.914;2023-10-19T01:48:49;4.43;;;4.03;;
29414;SDS011;20303;48.302;11.914;2023-10-19T01:58:55;4.30;;;3.90;;
29414;SDS011;20303;48.302;11.914;2023-10-19T02:08:59;4.72;;;3.90;;
29414;SDS011;20303;48.302;11.914;2023-10-19T02:19:09;4.40;;;4.00;;
29414;SDS011;20303;48.302;11.914;2023-10-19T02:29:10;4.75;;;4.20;;
29414;SDS011;20303;48.302;11.914;2023-10-19T02:39:12;5.25;;;3.95;;
29414;SDS011;20303;48.302;11.914;2023-10-19T02:49:14;4.38;;;3.95;;
29414;SDS011;20303;48.302;11.914;2023-10-19T02:59:18;4.75;;;4.28;;
29414;SDS011;20303;48.302;11.914;2023-10-19T03:09:23;5.75;;;4.20;;
29414;SDS011;20303;48.302;11.914;2023-10-19T03:19:27;4.68;;;4.28;;
29414;SDS011;20303;48.302;11.914;2023-10-19T03:29:28;4.53;;;4.13;;
29414;SDS011;20303;48.302;11.914;2023-10-19T03:39:33;6.68;;;4.25;;
29414;SDS011;20303;48.302;11.914;2023-10-19T03:49:34;4.90;;;4.30;;
29414;SDS011;20303;48.302;11.914;2023-10-19T03:59:38;4.88;;;4.38;;
29414;SDS011;20303;48.302;11.914;2023-10-19T04:09:39;4.75;;;4.30;;
29414;SDS011;20303;48.302;11.914;2023-10-19T04:20:06;4.72;;;4.13;;
29414;SDS011;20303;48.302;11.914;2023-10-19T04:30:17;4.70;;;4.30;;
29414;SDS011;20303;48.302;11.914;2023-10-19T04:40:22;4.75;;;4.30;;
29414;SDS011;20303;48.302;11.914;2023-10-19T04:50:23;5.10;;;4.60;;
29414;SDS011;20303;48.302;11.914;2023-10-19T05:00:24;4.90;;;4.40;;
29414;SDS011;20303;48.302;11.914;2023-10-19T05:10:27;5.78;;;4.80;;
29414;SDS011;20303;48.302;11.914;2023-10-19T05:20:29;5.10;;;4.60;;
29414;SDS011;20303;48.302;11.914;2023-10-19T05:30:30;5.88;;;4.45;;
29414;SDS011;20303;48.302;11.914;2023-10-19T05:40:32;6.30;;;4.75;;
29414;SDS011;20303;48.302;11.914;2023-10-19T05:50:34;7.38;;;4.82;;
29414;SDS011;20303;48.302;11.914;2023-10-19T06:00:35;6.40;;;4.60;;
29414;SDS011;20303;48.302;11.914;2023-10-19T06:10:36;7.28;;;4.57;;
29414;SDS011;20303;48.302;11.914;2023-10-19T06:20:45;6.50;;;4.88;;
29414;SDS011;20303;48.302;11.914;2023-10-19T06:30:47;6.90;;;5.00;;
29414;SDS011;20303;48.302;11.914;2023-10-19T06:40:48;5.13;;;4.60;;
29414;SDS011;20303;48.302;11.914;2023-10-19T06:50:49;6.28;;;4.90;;
29414;SDS011;20303;48.302;11.914;2023-10-19T07:00:50;6.38;;;4.70;;
29414;SDS011;20303;48.302;11.914;2023-10-19T07:10:59;6.07;;;4.60;;
29414;SDS011;20303;48.302;11.914;2023-10-19T07:21:00;6.53;;;4.70;;
29414;SDS011;20303;48.302;11.914;2023-10-19T07:31:05;6.68;;;4.63;;
29414;SDS011;20303;48.302;11.914;2023-10-19T07:41:12;6.32;;;4.38;;
29414;SDS011;20303;48.302;11.914;2023-10-19T07:51:13;6.07;;;4.70;;
29414;SDS011;20303;48.302;11.914;2023-10-19T08:01:14;6.57;;;4.57;;
29414;SDS011;20303;48.302;11.914;2023-10-19T08:11:16;4.97;;;4.43;;
29414;SDS011;20303;48.302;11.914;2023-10-19T08:21:17;5.28;;;4.63;;
29414;SDS011;20303;48.302;11.914;2023-10-19T08:31:18;5.00;;;4.30;;
29414;SDS011;20303;48.302;11.914;2023-10-19T08:41:19;5.57;;;4.30;;
29414;SDS011;20303;48.302;11.914;2023-10-19T08:51:20;5.90;;;4.32;;
29414;SDS011;20303;48.302;11.914;2023-10-19T09:01:21;4.80;;;4.30;;
29414;SDS011;20303;48.302;11.914;2023-10-19T09:11:24;5.00;;;4.50;;
29414;SDS011;20303;48.302;11.914;2023-10-19T09:21:25;5.60;;;4.50;;
29414;SDS011;20303;48.302;11.914;2023-10-19T09:31:26;4.88;;;4.38;;
29414;SDS011;20303;48.302;11.914;2023-10-19T09:41:27;5.93;;;4.35;;
29414;SDS011;20303;48.302;11.914;2023-10-19T09:51:28;4.88;;;4.00;;
29414;SDS011;20303;48.302;11.914;2023-10-19T10:02:00;4.50;;;4.10;;
29414;SDS011;20303;48.302;11.914;2023-10-19T10:12:20;4.88;;;4.10;;
29414;SDS011;20303;48.302;11.914;2023-10-19T10:22:25;4.78;;;4.18;;
29414;SDS011;20303;48.302;11.914;2023-10-19T10:32:46;4.25;;;3.85;;
29414;SDS011;20303;48.302;11.914;2023-10-19T10:42:48;4.25;;;3.85;;
29414;SDS011;20303;48.302;11.914;2023-10-19T10:52:49;4.68;;;4.20;;
29414;SDS011;20303;48.302;11.914;2023-10-19T11:03:04;4.05;;;3.60;;
29414;SDS011;20303;48.302;11.914;2023-10-19T11:23:10;4.82;;;4.32;;
29414;SDS011;20303;48.302;11.914;2023-10-19T11:33:12;4.88;;;4.00;;
29414;SDS011;20303;48.302;11.914;2023-10-19T11:43:13;4.30;;;3.90;;
29414;SDS011;20303;48.302;11.914;2023-10-19T11:53:14;4.63;;;4.13;;
29414;SDS011;20303;48.302;11.914;2023-10-19T12:03:15;4.30;;;3.90;;
29414;SDS011;20303;48.302;11.914;2023-10-19T12:13:16;6.63;;;4.20;;
29414;SDS011;20303;48.302;11.914;2023-10-19T12:23:17;5.95;;;4.28;;
29414;SDS011;20303;48.302;11.914;2023-10-19T12:33:18;5.07;;;4.20;;
29414;SDS011;20303;48.302;11.914;2023-10-19T12:43:20;6.43;;;4.90;;
29414;SDS011;20303;48.302;11.914;2023-10-19T12:53:24;6.82;;;5.28;;
29414;SDS011;20303;48.302;11.914;2023-10-19T13:03:26;8.18;;;6.20;;
29414;SDS011;20303;48.302;11.914;2023-10-19T13:13:32;11.20;;;6.50;;
29414;SDS011;20303;48.302;11.914;2023-10-19T13:23:36;10.07;;;7.03;;
29414;SDS011;20303;48.302;11.914;2023-10-19T13:33:37;10.52;;;7.07;;
29414;SDS011;20303;48.302;11.914;2023-10-19T13:43:39;9.30;;;7.10;;
29414;SDS011;20303;48.302;11.914;2023-10-19T13:53:42;11.68;;;7.88;;
29414;SDS011;20303;48.302;11.914;2023-10-19T14:03:45;12.88;;;7.72;;
29414;SDS011;20303;48.302;11.914;2023-10-19T14:13:46;12.95;;;7.70;;
29414;SDS011;20303;48.302;11.914;2023-10-19T14:23:47;15.25;;;8.85;;
29414;SDS011;20303;48.302;11.914;2023-10-19T14:33:48;13.05;;;8.00;;
29414;SDS011;20303;48.302;11.914;2023-10-19T14:43:49;13.55;;;8.73;;
29414;SDS011;20303;48.302;11.914;2023-10-19T14:53:50;13.57;;;8.80;;
29414;SDS011;20303;48.302;11.914;2023-10-19T15:03:51;13.80;;;8.48;;
29414;SDS011;20303;48.302;11.914;2023-10-19T15:13:52;13.43;;;8.55;;
29414;SDS011;20303;48.302;11.914;2023-10-19T15:23:54;13.30;;;8.88;;
29414;SDS011;20303;48.302;11.914;2023-10-19T15:33:55;12.52;;;8.75;;
29414;SDS011;20303;48.302;11.914;2023-10-19T15:43:56;34.17;;;11.57;;
29414;SDS011;20303;48.302;11.914;2023-10-19T15:53:57;22.05;;;10.85;;
29414;SDS011;20303;48.302;11.914;2023-10-19T16:03:58;18.08;;;9.63;;
29414;SDS011;20303;48.302;11.914;2023-10-19T16:13:59;18.70;;;9.75;;
29414;SDS011;20303;48.302;11.914;2023-10-19T16:24:00;15.50;;;8.98;;
29414;SDS011;20303;48.302;11.914;2023-10-19T16:34:01;14.63;;;8.30;;
29414;SDS011;20303;48.302;11.914;2023-10-19T16:44:02;16.00;;;8.38;;
29414;SDS011;20303;48.302;11.914;2023-10-19T16:54:07;15.35;;;8.10;;
29414;SDS011;20303;48.302;11.914;2023-10-19T17:04:08;12.70;;;8.05;;
29414;SDS011;20303;48.302;11.914;2023-10-19T17:14:09;12.50;;;7.50;;
29414;SDS011;20303;48.302;11.914;2023-10-19T17:24:11;11.38;;;7.60;;
29414;SDS011;20303;48.302;11.914;2023-10-19T17:34:12;10.98;;;7.43;;
29414;SDS011;20303;48.302;11.914;2023-10-19T17:44:13;12.90;;;7.20;;
29414;SDS011;20303;48.302;11.914;2023-10-19T17:54:15;11.90;;;7.00;;
29414;SDS011;20303;48.302;11.914;2023-10-19T18:04:16;9.82;;;7.10;;
29414;SDS011;20303;48.302;11.914;2023-10-19T18:14:17;12.20;;;7.22;;
29414;SDS011;20303;48.302;11.914;2023-10-19T18:24:19;9.48;;;6.53;;
29414;SDS011;20303;48.302;11.914;2023-10-19T18:34:23;9.55;;;6.68;;
29414;SDS011;20303;48.302;11.914;2023-10-19T18:44:25;9.10;;;6.60;;
29414;SDS011;20303;48.302;11.914;2023-10-19T18:54:29;8.18;;;6.65;;
29414;SDS011;20303;48.302;11.914;2023-10-19T19:04:30;7.97;;;6.22;;
29414;SDS011;20303;48.302;11.914;2023-10-19T19:14:34;7.88;;;6.30;;
29414;SDS011;20303;48.302;11.914;2023-10-19T19:24:35;7.57;;;6.00;;
29414;SDS011;20303;48.302;11.914;2023-10-19T19:34:38;8.90;;;6.63;;
29414;SDS011;20303;48.302;11.914;2023-10-19T19:44:40;8.00;;;6.20;;
29414;SDS011;20303;48.302;11.914;2023-10-19T19:54:42;6.82;;;5.97;;
29414;SDS011;20303;48.302;11.914;2023-10-19T20:04:43;7.32;;;5.95;;
29414;SDS011;20303;48.302;11.914;2023-10-19T20:14:44;7.80;;;5.80;;
29414;SDS011;20303;48.302;11.914;2023-10-19T20:24:45;9.48;;;5.95;;
29414;SDS011;20303;48.302;11.914;2023-10-19T20:34:47;7.82;;;5.70;;
29414;SDS011;20303;48.302;11.914;2023-10-19T20:44:49;9.55;;;5.70;;
29414;SDS011;20303;48.302;11.914;2023-10-19T20:54:50;8.07;;;5.78;;
29414;SDS011;20303;48.302;11.914;2023-10-19T21:04:51;7.70;;;5.68;;
29414;SDS011;20303;48.302;11.914;2023-10-19T21:14:52;6.93;;;5.45;;
29414;SDS011;20303;48.302;11.914;2023-10-19T21:24:53;6.68;;;5.40;;
29414;SDS011;20303;48.302;11.914;2023-10-19T21:34:54;7.15;;;5.60;;
29414;SDS011;20303;48.302;11.914;2023-10-19T21:44:55;7.10;;;5.47;;
29414;SDS011;20303;48.302;11.914;2023-10-19T21:54:57;5.80;;;5.20;;
29414;SDS011;20303;48.302;11.914;2023-10-19T22:15:01;5.85;;;5.05;;
29414;SDS011;20303;48.302;11.914;2023-10-19T22:25:03;6.13;;;5.43;;
29414;SDS011;20303;48.302;11.914;2023-10-19T22:35:05;5.63;;;5.03;;
29414;SDS011;20303;48.302;11.914;2023-10-19T22:45:09;6.32;;;5.18;;
29414;SDS011;20303;48.302;11.914;2023-10-19T22:55:12;5.70;;;4.93;;
29414;SDS011;20303;48.302;11.914;2023-10-19T23:05:14;5.78;;;5.20;;
29414;SDS011;20303;48.302;11.914;2023-10-19T23:15:20;6.15;;;5.55;;
29414;SDS011;20303;48.302;11.914;2023-10-19T23:25:31;5.80;;;5.20;;
29414;SDS011;20303;48.302;11.914;2023-10-19T23:35:33;5.82;;;5.22;;
29414;SDS011;20303;48.302;11.914;2023-10-19T23:45:37;5.65;;;5.05;;
29414;SDS011;20303;48.302;11.914;2023-10-19T23:55:39;6.30;;;5.50;;
